sensor_id;sensor_type;location;lat;lon;timestamp;P1;durP1;ratioP1;P2;durP2;ratioP2
20495;SDS011;10406;54.132;17.968;2022-09-09T00:02:21;8.63;;;4.00;;
20495;SDS011;10406;54.132;17.968;2022-09-09T00:07:55;6.60;;;3.80;;
20495;SDS011;10406;54.132;17.968;2022-09-09T00:13:32;8.30;;;3.80;;
20495;SDS011;10406;54.132;17.968;2022-09-09T00:19:16;5.73;;;4.13;;
20495;SDS011;10406;54.132;17.968;2022-09-09T00:24:49;8.07;;;4.00;;
20495;SDS011;10406;54.132;17.968;2022-09-09T00:30:31;8.63;;;4.17;;
20495;SDS011;10406;54.132;17.968;2022-09-09T00:36:09;6.57;;;3.73;;
20495;SDS011;10406;54.132;17.968;2022-09-09T00:42:24;6.40;;;3.47;;
20495;SDS011;10406;54.132;17.968;2022-09-09T00:48:01;4.83;;;3.73;;
20495;SDS011;10406;54.132;17.968;2022-09-09T00:53:51;15.30;;;4.90;;
20495;SDS011;10406;54.132;17.968;2022-09-09T00:59:34;6.97;;;3.67;;
20495;SDS011;10406;54.132;17.968;2022-09-09T01:11:48;13.47;;;4.73;;
20495;SDS011;10406;54.132;17.968;2022-09-09T01:17:24;12.33;;;4.27;;
20495;SDS011;10406;54.132;17.968;2022-09-09T01:22:59;6.07;;;3.60;;
20495;SDS011;10406;54.132;17.968;2022-09-09T01:28:51;8.97;;;4.03;;
20495;SDS011;10406;54.132;17.968;2022-09-09T01:34:22;11.73;;;5.03;;
20495;SDS011;10406;54.132;17.968;2022-09-09T01:39:54;8.77;;;4.50;;
20495;SDS011;10406;54.132;17.968;2022-09-09T01:45:31;31.90;;;12.27;;
20495;SDS011;10406;54.132;17.968;2022-09-09T01:51:03;16.53;;;4.97;;
20495;SDS011;10406;54.132;17.968;2022-09-09T01:56:35;10.73;;;5.20;;
20495;SDS011;10406;54.132;17.968;2022-09-09T02:02:14;13.17;;;5.97;;
20495;SDS011;10406;54.132;17.968;2022-09-09T02:08:19;11.40;;;5.27;;
20495;SDS011;10406;54.132;17.968;2022-09-09T02:13:44;12.10;;;5.10;;
20495;SDS011;10406;54.132;17.968;2022-09-09T02:19:09;9.27;;;5.40;;
20495;SDS011;10406;54.132;17.968;2022-09-09T02:24:36;10.97;;;5.57;;
20495;SDS011;10406;54.132;17.968;2022-09-09T02:30:02;16.83;;;7.20;;
20495;SDS011;10406;54.132;17.968;2022-09-09T02:42:02;10.93;;;5.83;;
20495;SDS011;10406;54.132;17.968;2022-09-09T02:47:25;18.90;;;6.80;;
20495;SDS011;10406;54.132;17.968;2022-09-09T02:53:00;10.97;;;5.90;;
20495;SDS011;10406;54.132;17.968;2022-09-09T02:58:33;16.33;;;5.80;;
20495;SDS011;10406;54.132;17.968;2022-09-09T03:03:54;9.70;;;5.67;;
20495;SDS011;10406;54.132;17.968;2022-09-09T03:23:25;11.23;;;5.90;;
20495;SDS011;10406;54.132;17.968;2022-09-09T03:28:48;12.80;;;6.27;;
20495;SDS011;10406;54.132;17.968;2022-09-09T03:34:13;13.23;;;6.50;;
20495;SDS011;10406;54.132;17.968;2022-09-09T03:39:36;16.60;;;6.20;;
20495;SDS011;10406;54.132;17.968;2022-09-09T03:44:57;12.87;;;6.03;;
20495;SDS011;10406;54.132;17.968;2022-09-09T03:50:51;15.93;;;5.93;;
20495;SDS011;10406;54.132;17.968;2022-09-09T03:56:16;10.50;;;6.20;;
20495;SDS011;10406;54.132;17.968;2022-09-09T04:01:38;17.33;;;6.10;;
20495;SDS011;10406;54.132;17.968;2022-09-09T04:07:01;19.70;;;6.20;;
20495;SDS011;10406;54.132;17.968;2022-09-09T04:12:28;12.63;;;6.23;;
20495;SDS011;10406;54.132;17.968;2022-09-09T04:32:07;11.57;;;6.20;;
20495;SDS011;10406;54.132;17.968;2022-09-09T04:37:28;9.47;;;5.43;;
20495;SDS011;10406;54.132;17.968;2022-09-09T04:42:49;14.53;;;6.53;;
20495;SDS011;10406;54.132;17.968;2022-09-09T04:48:12;12.73;;;6.40;;
20495;SDS011;10406;54.132;17.968;2022-09-09T04:54:04;13.97;;;6.37;;
20495;SDS011;10406;54.132;17.968;2022-09-09T05:05:26;16.67;;;6.47;;
20495;SDS011;10406;54.132;17.968;2022-09-09T05:10:47;13.87;;;6.23;;
20495;SDS011;10406;54.132;17.968;2022-09-09T05:22:08;19.03;;;7.13;;
20495;SDS011;10406;54.132;17.968;2022-09-09T05:27:33;15.40;;;7.13;;
20495;SDS011;10406;54.132;17.968;2022-09-09T05:32:58;12.10;;;6.97;;
20495;SDS011;10406;54.132;17.968;2022-09-09T05:38:20;15.47;;;6.77;;
20495;SDS011;10406;54.132;17.968;2022-09-09T05:43:44;16.67;;;7.47;;
20495;SDS011;10406;54.132;17.968;2022-09-09T05:49:06;17.73;;;7.50;;
20495;SDS011;10406;54.132;17.968;2022-09-09T05:54:28;14.03;;;6.87;;
20495;SDS011;10406;54.132;17.968;2022-09-09T05:59:50;16.23;;;7.30;;
20495;SDS011;10406;54.132;17.968;2022-09-09T06:05:11;16.40;;;7.87;;
20495;SDS011;10406;54.132;17.968;2022-09-09T06:10:34;14.43;;;7.07;;
20495;SDS011;10406;54.132;17.968;2022-09-09T06:15:55;10.47;;;6.30;;
20495;SDS011;10406;54.132;17.968;2022-09-09T06:21:17;10.27;;;6.10;;
20495;SDS011;10406;54.132;17.968;2022-09-09T06:26:50;11.03;;;6.60;;
20495;SDS011;10406;54.132;17.968;2022-09-09T06:32:13;13.03;;;6.23;;
20495;SDS011;10406;54.132;17.968;2022-09-09T06:37:45;13.33;;;6.00;;
20495;SDS011;10406;54.132;17.968;2022-09-09T06:43:09;13.53;;;6.93;;
20495;SDS011;10406;54.132;17.968;2022-09-09T06:48:30;21.43;;;7.07;;
20495;SDS011;10406;54.132;17.968;2022-09-09T06:53:54;13.07;;;5.90;;
20495;SDS011;10406;54.132;17.968;2022-09-09T06:59:18;17.30;;;5.70;;
20495;SDS011;10406;54.132;17.968;2022-09-09T07:04:39;9.97;;;5.37;;
20495;SDS011;10406;54.132;17.968;2022-09-09T07:16:12;8.67;;;5.10;;
20495;SDS011;10406;54.132;17.968;2022-09-09T07:21:44;9.50;;;4.77;;
20495;SDS011;10406;54.132;17.968;2022-09-09T07:27:06;6.00;;;4.10;;
20495;SDS011;10406;54.132;17.968;2022-09-09T07:32:31;5.93;;;4.63;;
20495;SDS011;10406;54.132;17.968;2022-09-09T07:37:52;14.10;;;4.80;;
20495;SDS011;10406;54.132;17.968;2022-09-09T07:48:55;6.00;;;4.30;;
20495;SDS011;10406;54.132;17.968;2022-09-09T07:54:18;6.43;;;4.50;;
20495;SDS011;10406;54.132;17.968;2022-09-09T07:59:42;4.07;;;3.67;;
20495;SDS011;10406;54.132;17.968;2022-09-09T08:05:05;5.10;;;3.73;;
20495;SDS011;10406;54.132;17.968;2022-09-09T08:23:03;3.70;;;3.40;;
20495;SDS011;10406;54.132;17.968;2022-09-09T08:28:25;5.67;;;3.70;;
20495;SDS011;10406;54.132;17.968;2022-09-09T08:33:46;4.00;;;3.70;;
20495;SDS011;10406;54.132;17.968;2022-09-09T08:39:10;5.77;;;4.00;;
20495;SDS011;10406;54.132;17.968;2022-09-09T08:44:37;6.47;;;4.43;;
20495;SDS011;10406;54.132;17.968;2022-09-09T08:50:45;10.60;;;4.43;;
20495;SDS011;10406;54.132;17.968;2022-09-09T08:56:14;5.07;;;3.77;;
20495;SDS011;10406;54.132;17.968;2022-09-09T09:01:50;9.33;;;4.70;;
20495;SDS011;10406;54.132;17.968;2022-09-09T09:07:23;9.33;;;4.83;;
20495;SDS011;10406;54.132;17.968;2022-09-09T09:13:02;7.50;;;4.57;;
20495;SDS011;10406;54.132;17.968;2022-09-09T09:18:39;5.63;;;4.17;;
20495;SDS011;10406;54.132;17.968;2022-09-09T09:24:01;5.10;;;4.50;;
20495;SDS011;10406;54.132;17.968;2022-09-09T09:29:29;5.47;;;4.30;;
20495;SDS011;10406;54.132;17.968;2022-09-09T09:34:56;6.30;;;4.03;;
20495;SDS011;10406;54.132;17.968;2022-09-09T09:40:26;4.13;;;3.83;;
20495;SDS011;10406;54.132;17.968;2022-09-09T09:45:52;7.73;;;4.53;;
20495;SDS011;10406;54.132;17.968;2022-09-09T09:51:26;4.70;;;3.90;;
20495;SDS011;10406;54.132;17.968;2022-09-09T09:56:54;5.57;;;3.97;;
20495;SDS011;10406;54.132;17.968;2022-09-09T10:02:23;5.00;;;3.90;;
20495;SDS011;10406;54.132;17.968;2022-09-09T10:08:00;4.30;;;3.90;;
20495;SDS011;10406;54.132;17.968;2022-09-09T10:13:41;8.00;;;4.70;;
20495;SDS011;10406;54.132;17.968;2022-09-09T10:19:26;7.57;;;5.07;;
20495;SDS011;10406;54.132;17.968;2022-09-09T10:30:50;10.07;;;5.27;;
20495;SDS011;10406;54.132;17.968;2022-09-09T10:36:23;7.90;;;5.30;;
20495;SDS011;10406;54.132;17.968;2022-09-09T10:41:48;9.23;;;5.03;;
20495;SDS011;10406;54.132;17.968;2022-09-09T10:47:24;9.83;;;5.53;;
20495;SDS011;10406;54.132;17.968;2022-09-09T10:53:02;8.93;;;5.97;;
20495;SDS011;10406;54.132;17.968;2022-09-09T10:58:38;14.23;;;6.40;;
20495;SDS011;10406;54.132;17.968;2022-09-09T11:04:04;10.83;;;5.57;;
20495;SDS011;10406;54.132;17.968;2022-09-09T11:09:32;8.97;;;6.03;;
20495;SDS011;10406;54.132;17.968;2022-09-09T11:14:59;13.07;;;6.87;;
20495;SDS011;10406;54.132;17.968;2022-09-09T11:20:25;10.93;;;6.43;;
20495;SDS011;10406;54.132;17.968;2022-09-09T11:25:48;13.80;;;6.67;;
20495;SDS011;10406;54.132;17.968;2022-09-09T11:31:21;16.40;;;6.73;;
20495;SDS011;10406;54.132;17.968;2022-09-09T11:37:04;12.73;;;7.33;;
20495;SDS011;10406;54.132;17.968;2022-09-09T11:42:38;23.83;;;10.27;;
20495;SDS011;10406;54.132;17.968;2022-09-09T11:48:21;14.03;;;7.73;;
20495;SDS011;10406;54.132;17.968;2022-09-09T11:54:01;17.60;;;7.57;;
20495;SDS011;10406;54.132;17.968;2022-09-09T11:59:38;17.27;;;7.60;;
20495;SDS011;10406;54.132;17.968;2022-09-09T12:11:02;15.33;;;7.97;;
20495;SDS011;10406;54.132;17.968;2022-09-09T12:16:54;17.17;;;8.37;;
20495;SDS011;10406;54.132;17.968;2022-09-09T12:22:25;16.37;;;8.07;;
20495;SDS011;10406;54.132;17.968;2022-09-09T12:28:09;17.53;;;8.90;;
20495;SDS011;10406;54.132;17.968;2022-09-09T12:33:37;19.57;;;9.90;;
20495;SDS011;10406;54.132;17.968;2022-09-09T12:39:09;18.03;;;8.93;;
20495;SDS011;10406;54.132;17.968;2022-09-09T12:44:39;19.07;;;9.73;;
20495;SDS011;10406;54.132;17.968;2022-09-09T12:50:17;22.87;;;10.50;;
20495;SDS011;10406;54.132;17.968;2022-09-09T13:19:32;26.73;;;12.27;;
20495;SDS011;10406;54.132;17.968;2022-09-09T13:25:53;23.57;;;11.83;;
20495;SDS011;10406;54.132;17.968;2022-09-09T13:31:19;29.03;;;13.63;;
20495;SDS011;10406;54.132;17.968;2022-09-09T13:36:46;27.77;;;13.03;;
20495;SDS011;10406;54.132;17.968;2022-09-09T13:42:20;23.40;;;12.57;;
20495;SDS011;10406;54.132;17.968;2022-09-09T13:47:54;30.73;;;14.53;;
20495;SDS011;10406;54.132;17.968;2022-09-09T13:53:18;28.70;;;14.13;;
20495;SDS011;10406;54.132;17.968;2022-09-09T13:58:40;27.60;;;13.67;;
20495;SDS011;10406;54.132;17.968;2022-09-09T14:04:01;30.33;;;15.83;;
20495;SDS011;10406;54.132;17.968;2022-09-09T14:09:22;31.77;;;15.07;;
20495;SDS011;10406;54.132;17.968;2022-09-09T14:27:47;35.27;;;17.20;;
20495;SDS011;10406;54.132;17.968;2022-09-09T14:33:43;34.30;;;17.77;;
20495;SDS011;10406;54.132;17.968;2022-09-09T14:39:04;38.57;;;19.17;;
20495;SDS011;10406;54.132;17.968;2022-09-09T14:44:25;34.73;;;18.33;;
20495;SDS011;10406;54.132;17.968;2022-09-09T14:49:48;41.80;;;17.23;;
20495;SDS011;10406;54.132;17.968;2022-09-09T14:55:13;36.50;;;17.20;;
20495;SDS011;10406;54.132;17.968;2022-09-09T15:00:39;31.60;;;15.77;;
20495;SDS011;10406;54.132;17.968;2022-09-09T15:06:08;31.73;;;16.27;;
20495;SDS011;10406;54.132;17.968;2022-09-09T15:11:38;30.83;;;16.40;;
20495;SDS011;10406;54.132;17.968;2022-09-09T15:17:00;29.27;;;15.83;;
20495;SDS011;10406;54.132;17.968;2022-09-09T15:22:24;44.10;;;21.93;;
20495;SDS011;10406;54.132;17.968;2022-09-09T15:27:46;30.83;;;16.20;;
20495;SDS011;10406;54.132;17.968;2022-09-09T15:33:08;32.90;;;17.17;;
20495;SDS011;10406;54.132;17.968;2022-09-09T15:38:38;33.17;;;17.43;;
20495;SDS011;10406;54.132;17.968;2022-09-09T15:44:00;38.50;;;19.73;;
20495;SDS011;10406;54.132;17.968;2022-09-09T15:49:26;34.23;;;17.30;;
20495;SDS011;10406;54.132;17.968;2022-09-09T15:55:02;36.53;;;16.60;;
20495;SDS011;10406;54.132;17.968;2022-09-09T16:00:24;31.03;;;17.03;;
20495;SDS011;10406;54.132;17.968;2022-09-09T16:05:51;33.93;;;17.63;;
20495;SDS011;10406;54.132;17.968;2022-09-09T16:11:24;37.53;;;19.77;;
20495;SDS011;10406;54.132;17.968;2022-09-09T16:17:02;34.53;;;19.60;;
20495;SDS011;10406;54.132;17.968;2022-09-09T16:22:28;36.13;;;19.43;;
20495;SDS011;10406;54.132;17.968;2022-09-09T16:28:04;34.80;;;19.03;;
20495;SDS011;10406;54.132;17.968;2022-09-09T16:33:31;40.13;;;20.27;;
20495;SDS011;10406;54.132;17.968;2022-09-09T16:38:55;33.73;;;19.17;;
20495;SDS011;10406;54.132;17.968;2022-09-09T16:44:35;37.73;;;20.50;;
20495;SDS011;10406;54.132;17.968;2022-09-09T16:50:03;42.27;;;22.00;;
20495;SDS011;10406;54.132;17.968;2022-09-09T16:55:26;37.73;;;21.30;;
20495;SDS011;10406;54.132;17.968;2022-09-09T17:07:21;44.93;;;22.60;;
20495;SDS011;10406;54.132;17.968;2022-09-09T17:12:42;47.53;;;23.67;;
20495;SDS011;10406;54.132;17.968;2022-09-09T17:18:08;39.63;;;20.37;;
20495;SDS011;10406;54.132;17.968;2022-09-09T17:29:32;41.60;;;22.23;;
20495;SDS011;10406;54.132;17.968;2022-09-09T17:34:57;38.27;;;20.30;;
20495;SDS011;10406;54.132;17.968;2022-09-09T17:40:34;46.83;;;22.40;;
20495;SDS011;10406;54.132;17.968;2022-09-09T17:52:02;39.63;;;21.03;;
20495;SDS011;10406;54.132;17.968;2022-09-09T17:57:27;42.83;;;22.97;;
20495;SDS011;10406;54.132;17.968;2022-09-09T18:08:46;41.87;;;23.43;;
20495;SDS011;10406;54.132;17.968;2022-09-09T18:14:11;41.53;;;20.67;;
20495;SDS011;10406;54.132;17.968;2022-09-09T18:19:35;44.17;;;21.53;;
20495;SDS011;10406;54.132;17.968;2022-09-09T18:24:56;44.10;;;22.83;;
20495;SDS011;10406;54.132;17.968;2022-09-09T18:30:19;46.00;;;22.70;;
20495;SDS011;10406;54.132;17.968;2022-09-09T18:35:42;45.87;;;23.27;;
20495;SDS011;10406;54.132;17.968;2022-09-09T18:41:14;57.70;;;29.50;;
20495;SDS011;10406;54.132;17.968;2022-09-09T18:46:38;49.13;;;24.90;;
20495;SDS011;10406;54.132;17.968;2022-09-09T18:51:59;47.47;;;25.50;;
20495;SDS011;10406;54.132;17.968;2022-09-09T18:57:22;48.97;;;24.33;;
20495;SDS011;10406;54.132;17.968;2022-09-09T19:08:44;52.67;;;24.67;;
20495;SDS011;10406;54.132;17.968;2022-09-09T19:14:07;50.00;;;22.70;;
20495;SDS011;10406;54.132;17.968;2022-09-09T19:19:37;51.13;;;23.57;;
20495;SDS011;10406;54.132;17.968;2022-09-09T19:25:06;41.53;;;21.77;;
20495;SDS011;10406;54.132;17.968;2022-09-09T19:30:33;39.20;;;21.73;;
20495;SDS011;10406;54.132;17.968;2022-09-09T19:36:10;42.90;;;19.57;;
20495;SDS011;10406;54.132;17.968;2022-09-09T19:41:34;34.53;;;18.57;;
20495;SDS011;10406;54.132;17.968;2022-09-09T19:46:56;37.90;;;18.00;;
20495;SDS011;10406;54.132;17.968;2022-09-09T19:58:50;33.43;;;17.10;;
20495;SDS011;10406;54.132;17.968;2022-09-09T20:04:13;32.13;;;17.30;;
20495;SDS011;10406;54.132;17.968;2022-09-09T20:09:46;34.13;;;17.70;;
20495;SDS011;10406;54.132;17.968;2022-09-09T20:21:02;36.17;;;17.43;;
20495;SDS011;10406;54.132;17.968;2022-09-09T20:26:53;33.90;;;17.00;;
20495;SDS011;10406;54.132;17.968;2022-09-09T20:38:42;37.63;;;18.60;;
20495;SDS011;10406;54.132;17.968;2022-09-09T20:44:10;34.47;;;17.73;;
20495;SDS011;10406;54.132;17.968;2022-09-09T21:03:00;37.33;;;18.00;;
20495;SDS011;10406;54.132;17.968;2022-09-09T21:08:30;33.63;;;17.03;;
20495;SDS011;10406;54.132;17.968;2022-09-09T21:13:51;37.37;;;18.93;;
20495;SDS011;10406;54.132;17.968;2022-09-09T21:19:14;30.53;;;16.40;;
20495;SDS011;10406;54.132;17.968;2022-09-09T21:24:40;39.33;;;17.63;;
20495;SDS011;10406;54.132;17.968;2022-09-09T21:36:31;36.60;;;17.40;;
20495;SDS011;10406;54.132;17.968;2022-09-09T21:42:01;38.57;;;19.67;;
20495;SDS011;10406;54.132;17.968;2022-09-09T21:47:25;33.37;;;17.00;;
20495;SDS011;10406;54.132;17.968;2022-09-09T21:59:58;32.70;;;14.97;;
20495;SDS011;10406;54.132;17.968;2022-09-09T22:12:29;24.70;;;11.93;;
20495;SDS011;10406;54.132;17.968;2022-09-09T22:17:52;23.43;;;11.37;;
20495;SDS011;10406;54.132;17.968;2022-09-09T22:29:02;24.73;;;12.63;;
20495;SDS011;10406;54.132;17.968;2022-09-09T22:47:28;36.00;;;18.77;;
20495;SDS011;10406;54.132;17.968;2022-09-09T23:05:53;52.17;;;21.03;;
20495;SDS011;10406;54.132;17.968;2022-09-09T23:32:41;58.70;;;20.43;;
20495;SDS011;10406;54.132;17.968;2022-09-09T23:44:17;37.63;;;20.07;;
20495;SDS011;10406;54.132;17.968;2022-09-09T23:56:51;30.93;;;15.20;;
